createdAt,value
2019-03-25T00:00:57.598Z,80.68
2019-03-25T00:01:57.590Z,80.37
2019-03-25T00:02:57.597Z,80.02
2019-03-25T00:03:57.573Z,80.54
2019-03-25T00:04:57.556Z,80.75
2019-03-25T00:05:57.540Z,80.54
2019-03-25T00:06:58.457Z,80.33
2019-03-25T00:07:57.542Z,81.10
2019-03-25T00:09:04.894Z,80.75
2019-03-25T00:09:58.507Z,81.06
2019-03-25T00:10:57.485Z,81.06
2019-03-25T00:11:57.494Z,80.85
2019-03-25T00:12:57.477Z,79.92
2019-03-25T00:13:57.490Z,80.99
2019-03-25T00:14:57.467Z,80.89
2019-03-25T00:15:57.446Z,81.10
2019-03-25T00:16:57.417Z,80.89
2019-03-25T00:17:57.411Z,81.37
2019-03-25T00:18:57.431Z,81.62
2019-03-25T00:19:57.394Z,81.30
2019-03-25T00:20:57.378Z,81.10
2019-03-25T00:21:57.364Z,81.51
2019-03-25T00:22:57.356Z,81.51
2019-03-25T00:23:57.346Z,81.56
2019-03-25T00:24:57.357Z,80.99
2019-03-25T00:25:57.320Z,80.68
2019-03-25T00:26:57.309Z,80.47
2019-03-25T00:27:57.298Z,80.47
2019-03-25T00:28:57.298Z,79.55
2019-03-25T00:29:57.279Z,79.55
2019-03-25T00:30:57.297Z,78.61
2019-03-25T00:31:57.254Z,79.03
2019-03-25T00:32:57.238Z,79.55
2019-03-25T00:33:57.239Z,79.03
2019-03-25T00:34:57.222Z,78.82
2019-03-25T00:35:57.215Z,79.03
2019-03-25T00:36:57.209Z,79.34
2019-03-25T00:37:57.185Z,78.72
2019-03-25T00:38:57.176Z,78.30
2019-03-25T00:39:57.171Z,78.72
2019-03-25T00:40:57.167Z,79.38
2019-03-25T00:41:57.140Z,78.55
2019-03-25T00:42:57.127Z,78.86
2019-03-25T00:43:57.117Z,79.38
2019-03-25T00:44:57.102Z,79.61
2019-03-25T00:45:57.109Z,79.51
2019-03-25T00:46:57.093Z,79.79
2019-03-25T00:47:57.069Z,79.20
2019-03-25T00:48:57.063Z,79.61
2019-03-25T00:49:57.059Z,79.93
2019-03-25T00:50:57.037Z,80.14
2019-03-25T00:51:57.051Z,80.66
2019-03-25T00:52:57.023Z,80.66
2019-03-25T00:53:57.034Z,80.66
2019-03-25T00:54:56.995Z,80.69
2019-03-25T00:55:56.985Z,80.69
2019-03-25T00:56:56.971Z,81.73
2019-03-25T00:57:56.973Z,81.63
2019-03-25T00:58:56.961Z,81.32
2019-03-25T00:59:56.951Z,81.42
2019-03-25T01:00:56.934Z,81.52
2019-03-25T01:01:56.920Z,81.73
2019-03-25T01:02:56.943Z,81.28
2019-03-25T01:03:56.893Z,81.38
2019-03-25T01:04:56.878Z,81.01
2019-03-25T01:05:56.871Z,81.42
2019-03-25T01:06:56.866Z,81.52
2019-03-25T01:07:56.877Z,81.67
2019-03-25T01:08:56.869Z,82.50
2019-03-25T01:09:56.826Z,82.39
2019-03-25T01:10:56.818Z,82.39
2019-03-25T01:11:56.843Z,81.98
2019-03-25T01:12:56.839Z,83.05
2019-03-25T01:13:56.794Z,83.01
2019-03-25T01:14:56.782Z,83.16
2019-03-25T01:15:56.764Z,83.68
2019-03-25T01:16:56.751Z,83.16
2019-03-25T01:17:56.755Z,83.92
2019-03-25T01:18:56.735Z,83.58
2019-03-25T01:19:56.716Z,84.03
2019-03-25T01:20:56.712Z,84.23
2019-03-25T01:21:56.698Z,84.13
2019-03-25T01:22:56.732Z,84.03
2019-03-25T01:23:56.707Z,84.44
2019-03-25T01:25:01.758Z,85.00
2019-03-25T01:25:57.654Z,84.69
2019-03-25T01:26:56.638Z,84.80
2019-03-25T01:27:56.632Z,85.21
2019-03-25T01:28:56.616Z,85.46
2019-03-25T01:29:56.622Z,86.67
2019-03-25T01:30:56.589Z,86.57
2019-03-25T01:31:56.583Z,86.88
2019-03-25T01:32:56.575Z,86.25
2019-03-25T01:33:56.560Z,86.15
2019-03-25T01:34:56.584Z,86.60
2019-03-25T01:35:56.547Z,86.15
2019-03-25T01:36:56.535Z,87.08
2019-03-25T01:37:56.517Z,86.46
2019-03-25T01:38:56.503Z,86.81
2019-03-25T01:39:56.504Z,86.67
2019-03-25T01:40:56.500Z,86.67
2019-03-25T01:41:56.478Z,86.83
2019-03-25T01:42:56.470Z,86.94
2019-03-25T01:43:56.482Z,86.52
2019-03-25T01:44:56.439Z,85.65
2019-03-25T01:45:56.451Z,86.38
2019-03-25T01:46:56.416Z,85.24
2019-03-25T01:47:56.408Z,84.72
2019-03-25T01:48:56.396Z,84.68
2019-03-25T01:49:56.388Z,84.99
2019-03-25T01:50:56.410Z,84.58
2019-03-25T01:51:56.388Z,84.37
2019-03-25T01:52:56.372Z,84.58
2019-03-25T01:53:56.347Z,84.58
2019-03-25T01:54:56.330Z,83.43
2019-03-25T01:55:56.316Z,83.18
2019-03-25T01:56:56.344Z,82.98
2019-03-25T01:57:56.300Z,83.50
2019-03-25T01:58:56.289Z,83.15
2019-03-25T01:59:56.279Z,82.56
2019-03-25T02:00:56.283Z,82.53
2019-03-25T02:01:56.257Z,82.98
2019-03-25T02:02:56.257Z,82.11
2019-03-25T02:03:56.232Z,82.32
2019-03-25T02:04:56.223Z,82.73
2019-03-25T02:05:56.214Z,82.73
2019-03-25T02:06:56.208Z,81.80
2019-03-25T02:07:56.201Z,82.32
2019-03-25T02:08:56.180Z,82.21
2019-03-25T02:09:56.166Z,82.73
2019-03-25T02:10:56.168Z,82.94
2019-03-25T02:11:56.160Z,82.21
2019-03-25T02:12:56.205Z,82.32
2019-03-25T02:13:56.119Z,82.73
2019-03-25T02:14:56.120Z,81.38
2019-03-25T02:15:56.101Z,81.59
2019-03-25T02:16:56.103Z,81.18
2019-03-25T02:17:56.091Z,81.59
2019-03-25T02:18:56.061Z,80.97
2019-03-25T02:19:56.136Z,81.14
2019-03-25T02:20:56.050Z,80.52
2019-03-25T02:21:56.043Z,80.00
2019-03-25T02:22:56.216Z,80.00
2019-03-25T02:23:56.015Z,79.17
2019-03-25T02:24:56.045Z,79.17
2019-03-25T02:25:55.991Z,79.90
2019-03-25T02:26:56.001Z,79.38
2019-03-25T02:27:55.972Z,79.06
2019-03-25T02:28:55.957Z,79.17
2019-03-25T02:29:55.951Z,78.86
2019-03-25T02:30:55.985Z,79.27
2019-03-25T02:31:55.918Z,79.17
2019-03-25T02:32:55.910Z,79.27
2019-03-25T02:33:55.898Z,79.79
2019-03-25T02:34:55.898Z,78.65
2019-03-25T02:35:55.897Z,78.65
2019-03-25T02:36:55.864Z,78.75
2019-03-25T02:37:55.854Z,78.09
2019-03-25T02:38:55.868Z,77.99
2019-03-25T02:39:55.876Z,77.47
2019-03-25T02:40:55.859Z,77.58
2019-03-25T02:41:55.807Z,78.72
2019-03-25T02:42:55.807Z,78.41
2019-03-25T02:43:55.800Z,77.99
2019-03-25T02:44:55.778Z,78.51
2019-03-25T02:45:55.768Z,78.20
2019-03-25T02:46:55.780Z,78.61
2019-03-25T02:47:55.745Z,79.03
2019-03-25T02:48:55.729Z,78.09
2019-03-25T02:49:55.718Z,78.37
2019-03-25T02:50:55.710Z,77.33
2019-03-25T02:51:55.714Z,78.27
2019-03-25T02:52:55.683Z,77.23
2019-03-25T02:53:55.672Z,78.06
2019-03-25T02:54:55.657Z,78.68
2019-03-25T02:55:55.653Z,78.47
2019-03-25T02:56:55.648Z,79.13
2019-03-25T02:57:55.623Z,79.61
2019-03-25T02:58:55.615Z,80.75
2019-03-25T02:59:55.600Z,81.48
2019-03-25T03:00:55.602Z,82.34
2019-03-25T03:01:55.615Z,83.17
2019-03-25T03:02:55.571Z,84.52
2019-03-25T03:03:55.561Z,85.25
2019-03-25T03:04:55.547Z,85.25
2019-03-25T03:05:55.535Z,84.63
2019-03-25T03:06:55.522Z,86.02
2019-03-25T03:07:55.524Z,86.43
2019-03-25T03:08:55.513Z,86.54
2019-03-25T03:09:55.492Z,87.82
2019-03-25T03:10:55.476Z,88.13
2019-03-25T03:11:55.467Z,89.58
2019-03-25T03:12:55.483Z,90.72
2019-03-25T03:13:55.448Z,90.87
2019-03-25T03:14:55.433Z,91.60
2019-03-25T03:15:55.453Z,90.10
2019-03-25T03:16:55.414Z,90.87
2019-03-25T03:17:55.413Z,89.52
2019-03-25T03:18:55.420Z,90.97
2019-03-25T03:19:55.591Z,91.03
2019-03-25T03:20:55.414Z,90.10
2019-03-25T03:21:55.370Z,90.56
2019-03-25T03:22:55.411Z,91.49
2019-03-25T03:23:55.346Z,90.97
2019-03-25T03:24:55.342Z,91.28
2019-03-25T03:25:57.878Z,91.70
2019-03-25T03:26:55.315Z,92.43
2019-03-25T03:27:55.330Z,92.63
2019-03-25T03:28:55.287Z,93.16
2019-03-25T03:29:55.293Z,92.84
2019-03-25T03:30:55.285Z,92.22
2019-03-25T03:31:55.291Z,92.01
2019-03-25T03:32:55.235Z,92.84
2019-03-25T03:33:55.254Z,92.32
2019-03-25T03:34:55.233Z,92.32
2019-03-25T03:35:55.215Z,92.68
2019-03-25T03:36:55.187Z,92.57
2019-03-25T03:37:55.179Z,93.26
2019-03-25T03:38:55.181Z,93.62
2019-03-25T03:39:55.163Z,93.41
2019-03-25T03:40:55.165Z,92.88
2019-03-25T03:41:55.128Z,93.41
2019-03-25T03:42:55.132Z,94.45
2019-03-25T03:43:55.111Z,93.93
2019-03-25T03:44:55.104Z,95.17
2019-03-25T03:45:55.107Z,94.65
2019-03-25T03:46:55.089Z,94.55
2019-03-25T03:47:55.062Z,94.96
2019-03-25T03:48:55.065Z,95.17
2019-03-25T03:49:55.054Z,94.49
2019-03-25T03:50:55.072Z,94.49
2019-03-25T03:51:55.033Z,95.63
2019-03-25T03:52:55.019Z,95.42
2019-03-25T03:53:54.997Z,95.11
2019-03-25T03:54:54.985Z,96.04
2019-03-25T03:55:54.977Z,96.25
2019-03-25T03:56:54.980Z,95.94
2019-03-25T03:57:55.924Z,96.15
2019-03-25T03:58:55.919Z,95.94
2019-03-25T03:59:54.927Z,96.67
2019-03-25T04:00:54.925Z,96.67
2019-03-25T04:01:55.473Z,96.98
2019-03-25T04:02:54.902Z,97.40
2019-03-25T04:03:55.882Z,97.61
2019-03-25T04:04:56.473Z,97.40
2019-03-25T04:05:56.518Z,97.40
2019-03-25T04:06:59.405Z,97.81
2019-03-25T04:08:05.212Z,97.19
2019-03-25T04:08:59.032Z,97.30
2019-03-25T04:10:35.639Z,98.23
2019-03-25T04:11:00.919Z,98.54
2019-03-25T04:12:00.595Z,98.44
2019-03-25T04:13:19.870Z,97.77
2019-03-25T07:02:44.687Z,87.66
2019-03-25T07:03:44.616Z,85.72
2019-03-25T07:04:44.571Z,84.52
2019-03-25T07:05:44.621Z,85.60
2019-03-25T07:06:44.523Z,87.56
2019-03-25T07:07:44.516Z,86.34
2019-03-25T07:08:44.525Z,85.97
2019-03-25T07:18:02.583Z,83.55
2019-03-25T07:19:02.628Z,84.30
2019-03-25T07:20:02.429Z,82.81
2019-03-25T07:21:02.420Z,78.61
2019-03-25T07:22:02.419Z,75.76
2019-03-25T07:23:02.307Z,77.44
2019-03-25T07:24:02.359Z,75.38
2019-03-25T07:25:02.376Z,74.77
2019-03-25T07:39:26.847Z,85.70
2019-03-25T07:40:26.960Z,84.03
2019-03-25T07:41:26.740Z,80.69
2019-03-25T07:42:26.727Z,82.31
2019-03-25T07:43:26.698Z,81.82
2019-03-25T07:44:26.665Z,80.47
2019-03-25T07:49:00.173Z,77.62
2019-03-25T07:50:00.017Z,75.59
2019-03-25T07:50:59.988Z,72.85
2019-03-25T07:52:00.099Z,74.08
2019-03-25T07:52:59.960Z,74.26
2019-03-25T07:53:59.897Z,71.66
2019-03-25T07:54:59.868Z,69.95
2019-03-25T07:55:59.862Z,71.52
2019-03-25T07:56:59.882Z,74.08
2019-03-25T07:57:59.846Z,75.18
2019-03-25T07:58:59.809Z,76.18
2019-03-25T07:59:59.877Z,77.22
2019-03-25T08:00:59.811Z,79.27
2019-03-25T08:01:59.796Z,79.79
2019-03-25T08:02:59.795Z,81.44
2019-03-25T08:03:59.755Z,80.00
2019-03-25T08:04:59.770Z,80.62
2019-03-25T08:05:59.748Z,79.75
2019-03-25T08:06:59.745Z,77.75
2019-03-25T08:07:59.772Z,73.40
2019-03-25T08:09:04.036Z,73.78
2019-03-25T08:09:59.709Z,74.26
2019-03-25T08:11:07.363Z,71.93
2019-03-25T08:12:07.340Z,73.68
2019-03-25T08:13:07.459Z,73.27
2019-03-25T08:14:08.511Z,74.08
2019-03-25T08:15:07.314Z,74.36
2019-03-25T08:16:07.303Z,76.28
2019-03-25T08:16:59.711Z,76.42
2019-03-25T08:19:13.413Z,78.76
2019-03-25T08:20:21.026Z,78.59
2019-03-25T08:21:20.960Z,79.66
2019-03-25T08:22:20.979Z,80.65
2019-03-25T08:23:20.920Z,80.18
2019-03-25T08:24:23.268Z,81.10
2019-03-25T08:26:27.151Z,79.25
2019-03-25T08:27:27.100Z,81.82
2019-03-25T08:28:27.001Z,81.51
2019-03-25T08:29:27.046Z,81.82
2019-03-25T08:30:26.973Z,83.44
2019-03-25T08:31:26.956Z,84.36
2019-03-25T08:36:51.737Z,83.55
2019-03-25T08:37:51.645Z,84.89
2019-03-25T08:38:51.638Z,84.07
2019-03-25T08:39:51.723Z,84.42
2019-03-25T08:40:51.567Z,86.07
2019-03-25T08:41:51.589Z,84.83
2019-03-25T08:42:51.562Z,86.11
2019-03-25T08:44:01.427Z,88.18
2019-03-25T08:45:00.323Z,87.56
2019-03-25T08:45:59.204Z,87.97
2019-03-25T08:47:00.607Z,87.54
2019-03-25T08:47:59.115Z,87.85
2019-03-25T08:48:59.110Z,89.09
2019-03-25T08:50:01.636Z,89.29
2019-03-25T08:52:41.253Z,87.43
2019-03-25T08:55:16.178Z,88.96
2019-03-25T08:56:15.543Z,91.24
2019-03-25T08:57:15.739Z,91.60
2019-03-25T08:58:15.510Z,91.08
2019-03-25T08:59:25.434Z,92.32
2019-03-25T09:02:28.133Z,90.41
2019-03-25T09:03:28.136Z,91.45
2019-03-25T09:04:27.992Z,92.01
2019-03-25T09:05:27.995Z,92.05
2019-03-25T09:06:27.947Z,91.64
2019-03-25T09:07:27.934Z,92.61
2019-03-25T09:08:37.854Z,93.54
2019-03-25T09:09:28.095Z,93.28
2019-03-25T09:10:28.135Z,92.76
2019-03-25T09:11:28.148Z,94.01
2019-03-25T09:12:27.850Z,94.42
2019-03-25T09:13:27.943Z,94.53
2019-03-25T09:14:27.917Z,94.48
2019-03-25T09:15:27.859Z,95.06
2019-03-25T09:16:27.878Z,94.60
2019-03-25T09:28:59.476Z,88.92
2019-03-25T09:29:59.381Z,90.43
2019-03-25T09:30:59.294Z,91.52
2019-03-25T09:31:59.268Z,88.37
2019-03-25T09:32:59.200Z,89.23
2019-03-25T09:33:59.334Z,90.06
2019-03-25T09:50:44.125Z,92.02
2019-03-25T09:51:37.226Z,91.09
2019-03-25T09:52:38.709Z,91.09
2019-03-25T09:53:37.535Z,90.37
2019-03-25T09:54:37.149Z,88.96
2019-03-25T09:55:37.160Z,88.86
2019-03-25T09:56:37.301Z,90.31
2019-03-25T10:05:04.315Z,91.69
2019-03-25T10:06:04.362Z,92.72
2019-03-25T10:07:04.029Z,92.83
2019-03-25T10:08:04.076Z,92.21
2019-03-25T10:09:03.948Z,92.25
2019-03-25T10:10:03.937Z,92.46
2019-03-25T10:11:03.917Z,93.60
2019-03-25T10:19:21.536Z,91.82
2019-03-25T10:20:21.168Z,91.05
2019-03-25T10:21:20.959Z,90.08
2019-03-25T10:22:20.698Z,88.12
2019-03-25T10:23:20.672Z,88.29
2019-03-25T10:24:27.612Z,90.92
2019-03-25T10:25:22.860Z,88.29
2019-03-25T10:26:20.548Z,84.41
2019-03-25T10:27:20.563Z,86.88
2019-03-25T10:28:20.526Z,88.43
2019-03-25T10:29:20.524Z,87.95
2019-03-25T10:30:20.508Z,87.85
2019-03-25T10:31:20.525Z,90.22
2019-03-25T10:32:20.590Z,90.59
2019-03-25T10:33:20.474Z,89.19
2019-03-25T10:34:20.457Z,90.02
2019-03-25T10:35:20.447Z,89.34
2019-03-25T10:36:20.443Z,88.34
2019-03-25T10:37:20.456Z,87.73
2019-03-25T10:38:20.413Z,89.01
2019-03-25T10:39:20.397Z,90.04
2019-03-25T10:40:20.394Z,90.66
2019-03-25T10:41:20.501Z,89.17
2019-03-25T10:42:20.399Z,88.76
2019-03-25T10:43:20.362Z,87.97
2019-03-25T10:44:20.437Z,87.87
2019-03-25T10:45:20.326Z,89.11
2019-03-25T10:46:20.371Z,90.45
2019-03-25T10:47:20.425Z,91.28
2019-03-25T10:48:20.343Z,90.19
2019-03-25T10:49:20.349Z,90.97
2019-03-25T10:50:20.283Z,92.11
2019-03-25T10:51:20.283Z,89.32
2019-03-25T10:52:20.262Z,90.16
2019-03-25T10:53:20.261Z,87.52
2019-03-25T10:54:20.292Z,87.83
2019-03-25T10:55:20.528Z,88.86
2019-03-25T10:56:20.270Z,91.24
2019-03-25T10:57:20.671Z,87.93
2019-03-25T11:10:54.415Z,84.44
2019-03-25T11:11:54.362Z,82.56
2019-03-25T11:12:54.095Z,83.05
2019-03-25T11:13:54.485Z,85.67
2019-03-25T11:14:54.336Z,86.12
2019-03-25T11:15:53.989Z,84.41
2019-03-25T11:17:21.292Z,87.48
2019-03-25T11:18:00.427Z,87.00
2019-03-25T11:26:21.345Z,90.44
2019-03-25T11:27:21.287Z,91.05
2019-03-25T11:28:21.189Z,91.30
2019-03-25T11:29:21.250Z,91.72
2019-03-25T11:30:21.146Z,92.44
2019-03-25T11:31:21.111Z,91.41
2019-03-25T11:32:21.139Z,91.09
2019-03-25T11:33:21.093Z,92.24
2019-03-25T11:34:21.081Z,90.89
2019-03-25T11:35:21.065Z,92.24
2019-03-25T11:36:21.043Z,92.13
2019-03-25T11:37:21.047Z,91.09
2019-03-25T11:38:21.098Z,91.88
2019-03-25T11:39:21.012Z,93.43
2019-03-25T11:40:21.007Z,92.09
2019-03-25T11:41:20.990Z,92.36
2019-03-25T11:42:20.990Z,93.39
2019-03-25T11:43:20.995Z,90.39
2019-03-25T11:44:20.967Z,91.53
2019-03-25T11:45:20.948Z,92.21
2019-03-25T11:46:20.960Z,92.38
2019-03-25T11:47:20.921Z,90.99
2019-03-25T11:48:20.912Z,90.12
2019-03-25T11:49:20.909Z,89.67
2019-03-25T11:50:20.890Z,88.53
2019-03-25T11:51:20.917Z,89.15
2019-03-25T11:52:20.869Z,88.64
2019-03-25T11:53:20.853Z,90.86
2019-03-25T11:54:20.846Z,89.83
2019-03-25T11:55:20.832Z,87.29
2019-03-25T11:56:20.851Z,87.85
2019-03-25T11:57:20.820Z,90.12
2019-03-25T11:58:20.801Z,90.84
2019-03-25T11:59:20.812Z,90.64
2019-03-25T12:00:20.781Z,87.68
2019-03-25T12:01:20.769Z,90.06
2019-03-25T12:02:20.776Z,90.06
2019-03-25T12:03:20.755Z,90.25
2019-03-25T12:04:20.759Z,92.21
2019-03-25T12:05:20.728Z,90.97
2019-03-25T12:06:20.713Z,92.21
2019-03-25T12:07:20.760Z,92.11
2019-03-25T12:08:20.690Z,91.07
2019-03-25T12:09:20.677Z,91.59
2019-03-25T12:10:20.754Z,92.72
2019-03-25T12:11:20.651Z,91.90
2019-03-25T12:12:20.659Z,91.94
2019-03-25T12:13:20.641Z,91.90
2019-03-25T12:14:20.635Z,92.21
2019-03-25T12:15:20.616Z,90.45
2019-03-25T12:16:20.623Z,91.65
2019-03-25T12:17:20.592Z,91.09
2019-03-25T12:18:20.619Z,90.26
2019-03-25T12:19:20.564Z,87.89
2019-03-25T12:20:20.602Z,89.44
2019-03-25T12:21:20.542Z,88.89
2019-03-25T12:22:20.560Z,88.37
2019-03-25T12:23:26.390Z,89.15
2019-03-25T12:24:21.579Z,86.05
2019-03-25T12:25:20.523Z,85.64
2019-03-25T12:26:20.546Z,87.05
2019-03-25T12:27:20.530Z,87.87
2019-03-25T12:28:20.882Z,86.32
2019-03-25T12:29:29.676Z,87.63
2019-03-25T12:30:21.442Z,85.71
2019-03-25T12:31:20.451Z,85.39
2019-03-25T12:32:20.459Z,85.85
2019-03-25T12:33:20.485Z,86.84
2019-03-25T12:34:20.494Z,83.48
2019-03-25T12:35:20.432Z,83.85
2019-03-25T12:36:20.404Z,83.54
2019-03-25T12:37:20.360Z,83.27
2019-03-25T12:38:20.381Z,84.27
2019-03-25T12:39:20.704Z,83.75
2019-03-25T12:40:20.328Z,83.75
2019-03-25T12:41:20.315Z,82.78
2019-03-25T12:42:20.393Z,82.33
2019-03-25T12:43:20.412Z,81.20
2019-03-25T12:44:20.422Z,82.74
2019-03-25T12:45:20.346Z,83.22
2019-03-25T12:46:20.364Z,82.09
2019-03-25T12:47:20.365Z,81.63
2019-03-25T12:48:20.234Z,78.44
2019-03-25T12:49:20.228Z,80.40
2019-03-25T12:50:20.332Z,78.03
2019-03-25T12:51:20.267Z,79.00
2019-03-25T12:52:20.232Z,80.02
2019-03-25T12:53:20.224Z,78.41
2019-03-25T12:54:20.233Z,81.37
2019-03-25T12:55:20.176Z,80.47
2019-03-25T12:56:20.148Z,78.11
2019-03-25T12:57:20.214Z,82.09
2019-03-25T12:58:20.338Z,80.02
2019-03-25T12:59:20.158Z,77.90
2019-03-25T13:00:20.201Z,80.79
2019-03-25T13:01:20.092Z,79.44
2019-03-25T13:02:20.248Z,79.75
2019-03-25T13:03:21.505Z,78.93
2019-03-25T13:04:20.115Z,79.55
2019-03-25T13:05:20.119Z,77.94
2019-03-25T13:06:20.346Z,78.72
2019-03-25T13:07:20.053Z,78.14
2019-03-25T13:08:20.248Z,76.08
2019-03-25T13:09:20.010Z,78.34
2019-03-25T13:10:20.027Z,79.24
2019-03-25T13:11:20.058Z,77.80
2019-03-25T13:12:19.975Z,78.00
2019-03-25T13:13:19.967Z,76.01
2019-03-25T13:14:19.981Z,75.12
2019-03-25T13:15:20.084Z,76.90
2019-03-25T13:16:20.001Z,77.18
2019-03-25T13:17:19.901Z,75.63
2019-03-25T13:18:19.940Z,75.49
2019-03-25T13:19:19.945Z,77.45
2019-03-25T13:20:19.911Z,77.66
2019-03-25T13:21:19.873Z,77.69
2019-03-25T13:22:19.904Z,78.17
2019-03-25T13:23:20.012Z,77.66
2019-03-25T13:24:19.883Z,76.73
2019-03-25T13:25:19.883Z,77.76
2019-03-25T13:26:19.874Z,78.21
2019-03-25T13:27:19.866Z,78.52
2019-03-25T13:28:19.844Z,79.20
2019-03-25T13:29:19.816Z,77.93
2019-03-25T13:30:19.981Z,75.49
2019-03-25T13:31:19.845Z,75.46
2019-03-25T13:32:19.830Z,74.91
2019-03-25T13:33:19.773Z,75.84
2019-03-25T13:34:19.741Z,74.50
2019-03-25T13:35:19.825Z,71.82
2019-03-25T13:36:19.735Z,72.85
2019-03-25T13:37:19.868Z,72.75
2019-03-25T13:38:19.820Z,70.83
2019-03-25T13:39:19.692Z,74.02
2019-03-25T13:40:19.835Z,74.02
2019-03-25T13:41:19.723Z,72.37
2019-03-25T13:42:19.767Z,73.91
2019-03-25T13:43:19.624Z,72.51
2019-03-25T13:44:19.659Z,73.02
2019-03-25T13:45:19.646Z,71.82
2019-03-25T13:46:19.699Z,72.23
2019-03-25T13:47:19.806Z,72.23
2019-03-25T13:48:19.567Z,73.50
2019-03-25T13:49:19.606Z,73.81
2019-03-25T13:50:20.231Z,73.71
2019-03-25T13:51:19.541Z,74.46
2019-03-25T13:52:19.672Z,75.49
2019-03-25T13:53:19.506Z,75.70
2019-03-25T13:54:19.856Z,76.12
2019-03-25T13:55:19.514Z,75.91
2019-03-25T13:56:19.534Z,75.91
2019-03-25T13:57:21.453Z,74.43
2019-03-25T13:58:19.671Z,76.08
2019-03-25T13:59:19.461Z,76.80
2019-03-25T14:00:19.465Z,73.98
2019-03-25T14:01:52.624Z,75.18
2019-03-25T14:02:20.791Z,75.49
2019-03-25T14:03:50.153Z,73.54
2019-03-25T14:04:19.388Z,74.36
2019-03-25T14:05:19.373Z,74.77
2019-03-25T14:06:19.381Z,75.43
2019-03-25T14:07:19.511Z,75.63
2019-03-25T14:08:19.373Z,74.43
2019-03-25T14:09:19.365Z,75.56
2019-03-25T14:10:19.324Z,74.84
2019-03-25T14:11:19.296Z,74.33
2019-03-25T14:12:19.456Z,76.49
2019-03-25T14:13:19.284Z,76.25
2019-03-25T14:14:19.292Z,78.31
2019-03-25T14:15:19.250Z,77.90
2019-03-25T14:16:19.266Z,76.73
2019-03-25T14:17:19.239Z,77.55
2019-03-25T14:18:19.232Z,79.41
2019-03-25T14:19:19.246Z,78.07
2019-03-25T14:20:19.202Z,78.62
2019-03-25T14:21:19.207Z,80.27
2019-03-25T14:22:19.213Z,74.43
2019-03-25T14:23:19.167Z,75.46
2019-03-25T14:24:19.191Z,76.12
2019-03-25T14:25:19.134Z,76.12
2019-03-25T14:26:19.125Z,76.53
2019-03-25T14:27:19.117Z,78.18
2019-03-25T14:28:19.102Z,75.53
2019-03-25T14:29:19.106Z,76.67
2019-03-25T14:30:19.125Z,78.31
2019-03-25T14:31:19.069Z,79.97
2019-03-25T14:32:19.072Z,77.80
2019-03-25T14:33:19.050Z,78.14
2019-03-25T14:34:19.066Z,77.11
2019-03-25T14:35:19.028Z,78.14
2019-03-25T14:36:19.059Z,76.18
2019-03-25T14:37:19.009Z,76.81
2019-03-25T14:38:19.028Z,76.22
2019-03-25T14:39:18.983Z,77.87
2019-03-25T14:40:18.982Z,77.98
2019-03-25T14:41:18.957Z,78.28
2019-03-25T14:42:18.964Z,78.08
2019-03-25T14:43:18.943Z,77.77
2019-03-25T14:44:18.931Z,78.18
2019-03-25T14:45:26.393Z,78.42
2019-03-25T14:46:19.921Z,79.22
2019-03-25T14:47:18.896Z,78.28
2019-03-25T14:48:18.911Z,76.43
2019-03-25T14:49:18.876Z,75.81
2019-03-25T14:50:18.853Z,77.87
2019-03-25T14:51:18.860Z,75.81
2019-03-25T14:52:18.835Z,75.91
2019-03-25T14:53:18.843Z,76.22
2019-03-25T14:54:18.823Z,76.08
2019-03-25T14:55:18.816Z,75.81
2019-03-25T14:56:18.784Z,75.36
2019-03-25T14:57:18.816Z,76.08
2019-03-25T14:58:18.781Z,75.36
2019-03-25T14:59:18.764Z,75.87
2019-03-25T15:00:25.068Z,74.81
2019-03-25T15:01:19.738Z,75.74
2019-03-25T15:02:18.742Z,75.43
2019-03-25T15:03:18.748Z,74.36
2019-03-25T15:04:18.718Z,74.88
2019-03-25T15:05:18.701Z,75.77
2019-03-25T15:06:18.721Z,75.46
2019-03-25T15:07:18.667Z,74.19
2019-03-25T15:08:18.657Z,75.46
2019-03-25T15:09:18.706Z,74.43
2019-03-25T15:10:18.635Z,74.19
2019-03-25T15:11:26.283Z,75.67
2019-03-25T15:12:18.702Z,74.29
2019-03-25T15:13:18.718Z,73.71
2019-03-25T15:14:18.666Z,75.70
2019-03-25T15:15:18.729Z,75.39
2019-03-25T15:16:18.604Z,73.78
2019-03-25T15:17:18.559Z,76.08
2019-03-25T15:18:18.546Z,75.67
2019-03-25T15:19:18.537Z,77.22
2019-03-25T15:20:18.532Z,76.63
2019-03-25T15:21:18.531Z,77.76
2019-03-25T15:22:18.506Z,77.76
2019-03-25T15:23:18.509Z,76.94
2019-03-25T15:24:18.530Z,75.39
2019-03-25T15:25:18.484Z,76.73
2019-03-25T15:26:18.455Z,76.15
2019-03-25T15:27:18.469Z,75.74
2019-03-25T15:28:18.435Z,76.77
2019-03-25T15:29:18.430Z,77.97
2019-03-25T15:30:18.482Z,78.90
2019-03-25T15:31:18.417Z,76.77
2019-03-25T15:32:18.737Z,78.28
2019-03-25T15:33:18.421Z,75.63
2019-03-25T15:34:18.376Z,75.22
2019-03-25T15:35:18.361Z,76.46
2019-03-25T15:36:18.403Z,78.21
2019-03-25T15:37:18.327Z,77.39
2019-03-25T15:38:18.315Z,78.11
2019-03-25T15:39:18.318Z,78.11
2019-03-25T15:40:18.316Z,77.70
2019-03-25T15:41:18.292Z,77.80
2019-03-25T15:42:18.302Z,78.52
2019-03-25T15:43:18.280Z,78.73
2019-03-25T15:44:18.246Z,80.28
2019-03-25T15:45:18.248Z,79.55
2019-03-25T15:46:18.233Z,79.14
2019-03-25T15:47:18.276Z,78.01
2019-03-25T15:48:18.295Z,78.94
2019-03-25T15:49:18.250Z,78.94
2019-03-25T15:50:18.210Z,78.73
2019-03-25T15:51:18.206Z,79.83
2019-03-25T15:52:18.174Z,79.35
2019-03-25T15:53:18.166Z,81.31
2019-03-25T15:54:18.155Z,80.18
2019-03-25T15:55:18.129Z,80.96
2019-03-25T15:56:18.140Z,80.86
2019-03-25T15:57:18.119Z,81.21
2019-03-25T15:58:25.963Z,81.72
2019-03-25T15:59:19.140Z,82.34
2019-03-25T16:00:18.070Z,82.65
2019-03-25T16:01:18.073Z,81.82
2019-03-25T16:02:18.048Z,82.14
2019-03-25T16:03:18.053Z,81.10
2019-03-25T16:04:18.035Z,82.24
2019-03-25T16:05:18.097Z,81.62
2019-03-25T16:06:18.006Z,82.96
2019-03-25T16:07:18.066Z,81.86
2019-03-25T16:08:17.994Z,81.21
2019-03-25T16:09:17.971Z,80.69
2019-03-25T16:10:17.978Z,80.79
2019-03-25T16:11:17.947Z,80.38
2019-03-25T16:12:17.937Z,79.86
2019-03-25T16:13:18.033Z,80.07
2019-03-25T16:14:17.923Z,78.94
2019-03-25T16:15:18.023Z,80.18
2019-03-25T16:16:17.896Z,80.73
2019-03-25T16:17:17.879Z,80.11
2019-03-25T16:18:17.939Z,80.21
2019-03-25T16:19:17.858Z,80.42
2019-03-25T16:20:17.854Z,80.42
2019-03-25T16:21:17.902Z,80.00
2019-03-25T16:22:17.837Z,80.00
2019-03-25T16:23:17.840Z,80.62
2019-03-25T16:24:17.807Z,80.25
2019-03-25T16:25:17.812Z,80.25
2019-03-25T16:26:17.794Z,81.28
2019-03-25T16:27:17.830Z,81.49
2019-03-25T16:28:17.770Z,82.56
2019-03-25T16:29:18.131Z,82.15
2019-03-25T16:30:17.744Z,81.70
2019-03-25T16:31:17.761Z,82.04
2019-03-25T16:32:17.719Z,82.76
2019-03-25T16:33:18.259Z,82.97
2019-03-25T16:34:17.710Z,82.45
2019-03-25T16:35:17.705Z,83.49
2019-03-25T16:36:17.687Z,82.97
2019-03-25T16:37:17.671Z,83.49
2019-03-25T16:38:17.774Z,83.18
2019-03-25T16:39:17.684Z,83.70
2019-03-25T16:40:18.948Z,83.70
2019-03-25T16:41:17.808Z,84.42
2019-03-25T16:42:17.933Z,84.73
2019-03-25T16:43:17.725Z,83.32
2019-03-25T16:44:17.654Z,84.15
2019-03-25T16:45:17.637Z,84.66
2019-03-25T16:46:17.721Z,85.80
2019-03-25T16:47:17.785Z,85.39
2019-03-25T16:48:17.596Z,85.80
2019-03-25T16:49:17.629Z,85.80
2019-03-25T16:50:17.551Z,85.63
2019-03-25T16:51:17.569Z,85.63
2019-03-25T16:52:17.613Z,85.94
2019-03-25T16:53:17.551Z,86.05
2019-03-25T16:54:17.486Z,86.15
2019-03-25T16:55:17.453Z,86.15
2019-03-25T16:56:17.496Z,86.46
2019-03-25T16:57:17.463Z,87.39
2019-03-25T16:58:17.434Z,87.49
2019-03-25T16:59:17.464Z,87.39
2019-03-25T17:00:26.945Z,88.26
2019-03-25T17:01:18.387Z,87.95
2019-03-25T17:02:17.523Z,88.12
2019-03-25T17:03:17.360Z,87.91
2019-03-25T17:04:17.380Z,88.01
2019-03-25T17:05:17.346Z,88.74
2019-03-25T17:06:17.348Z,88.94
2019-03-25T17:08:39.301Z,90.35
2019-03-25T17:09:39.329Z,89.11
2019-03-25T17:10:39.160Z,90.35
2019-03-25T17:11:39.073Z,90.50
2019-03-25T17:12:39.089Z,91.07
2019-03-25T17:15:06.268Z,92.05
2019-03-25T17:16:06.208Z,92.25
2019-03-25T17:17:06.149Z,92.40
2019-03-25T17:18:06.022Z,92.24
2019-03-25T17:19:05.998Z,92.34
2019-03-25T17:20:06.061Z,92.96
2019-03-25T17:21:06.051Z,93.06
2019-03-25T17:22:05.963Z,93.37
2019-03-25T17:23:05.963Z,93.58
2019-03-25T17:24:05.933Z,94.20